LFOT 181700Z AUTO 30007KT 260V340 CAVOK 27/12 Q1015 NOSIG

ElémentsDécodage
LFOT Station météo située sur l'aérodrome de TOURS Val-de-Loire
181700Z émis le 18 du mois à 17h00 UTC
AUTO Bulletin édité par un automate
30007KT vent du 300°, 07 noeuds
260V340 vent de direction variable entre 260° et 340°
CAVOK Ceiling And Visibility OK
- Visibilité de 10 Km ou plus
- Pas de nuage au-dessous de 1500m ou au-dessous de l'altitude minimale du secteur la plus élevée (si>1500m) et absence de CB
- pas de temps présent significatif
27/12 température 27°C, point de rosée 12°C
 soit une humidité relative de 39%
Q1015 la pression au niveau de la mer (QNH) est de 1015 hPa
NOSIG Pas de changement significatif prévu au cours des deux heures suivant l'heure de l'observation